sensor_id;sensor_type;location;lat;lon;timestamp;temperature;humidity
53748;DHT22;39655;53.210;5.768;2024-03-08T00:02:17;2.10;90.30
53748;DHT22;39655;53.210;5.768;2024-03-08T00:04:45;2.10;90.50
53748;DHT22;39655;53.210;5.768;2024-03-08T00:07:11;2.00;90.30
53748;DHT22;39655;53.210;5.768;2024-03-08T00:09:38;2.00;90.30
53748;DHT22;39655;53.210;5.768;2024-03-08T00:12:04;2.10;90.50
53748;DHT22;39655;53.210;5.768;2024-03-08T00:14:30;2.10;90.50
53748;DHT22;39655;53.210;5.768;2024-03-08T00:16:55;2.10;90.50
53748;DHT22;39655;53.210;5.768;2024-03-08T00:19:21;2.00;90.50
53748;DHT22;39655;53.210;5.768;2024-03-08T00:21:46;2.10;90.60
53748;DHT22;39655;53.210;5.768;2024-03-08T00:24:12;2.10;90.60
53748;DHT22;39655;53.210;5.768;2024-03-08T00:26:37;2.10;90.60
53748;DHT22;39655;53.210;5.768;2024-03-08T00:29:03;2.20;90.60
53748;DHT22;39655;53.210;5.768;2024-03-08T00:31:29;2.20;90.60
53748;DHT22;39655;53.210;5.768;2024-03-08T00:33:56;2.10;90.60
53748;DHT22;39655;53.210;5.768;2024-03-08T00:36:22;2.10;90.60
53748;DHT22;39655;53.210;5.768;2024-03-08T00:38:48;2.10;90.60
53748;DHT22;39655;53.210;5.768;2024-03-08T00:41:13;2.10;90.70
53748;DHT22;39655;53.210;5.768;2024-03-08T00:43:39;2.10;90.70
53748;DHT22;39655;53.210;5.768;2024-03-08T00:46:04;2.10;90.70
53748;DHT22;39655;53.210;5.768;2024-03-08T00:48:30;2.00;90.80
53748;DHT22;39655;53.210;5.768;2024-03-08T00:50:56;2.00;90.80
53748;DHT22;39655;53.210;5.768;2024-03-08T00:53:22;2.00;90.80
53748;DHT22;39655;53.210;5.768;2024-03-08T00:55:47;2.00;90.80
53748;DHT22;39655;53.210;5.768;2024-03-08T00:58:13;1.90;90.80
53748;DHT22;39655;53.210;5.768;2024-03-08T01:00:38;1.90;90.90
53748;DHT22;39655;53.210;5.768;2024-03-08T01:03:04;1.90;91.00
53748;DHT22;39655;53.210;5.768;2024-03-08T01:05:30;1.90;91.00
53748;DHT22;39655;53.210;5.768;2024-03-08T01:07:56;1.90;91.10
53748;DHT22;39655;53.210;5.768;2024-03-08T01:10:21;1.80;91.10
53748;DHT22;39655;53.210;5.768;2024-03-08T01:12:47;1.80;91.20
53748;DHT22;39655;53.210;5.768;2024-03-08T01:15:12;1.80;91.20
53748;DHT22;39655;53.210;5.768;2024-03-08T01:17:38;1.70;91.30
53748;DHT22;39655;53.210;5.768;2024-03-08T01:20:04;1.70;91.30
53748;DHT22;39655;53.210;5.768;2024-03-08T01:22:30;1.70;91.30
53748;DHT22;39655;53.210;5.768;2024-03-08T01:24:58;1.60;91.30
53748;DHT22;39655;53.210;5.768;2024-03-08T01:27:23;1.60;91.40
53748;DHT22;39655;53.210;5.768;2024-03-08T01:29:55;1.50;91.50
53748;DHT22;39655;53.210;5.768;2024-03-08T01:32:20;1.50;91.50
53748;DHT22;39655;53.210;5.768;2024-03-08T01:34:48;1.50;91.70
53748;DHT22;39655;53.210;5.768;2024-03-08T01:37:14;1.50;91.70
53748;DHT22;39655;53.210;5.768;2024-03-08T01:39:39;1.50;91.70
53748;DHT22;39655;53.210;5.768;2024-03-08T01:42:08;1.50;91.70
53748;DHT22;39655;53.210;5.768;2024-03-08T01:44:33;1.50;92.00
53748;DHT22;39655;53.210;5.768;2024-03-08T01:46:59;1.50;92.00
53748;DHT22;39655;53.210;5.768;2024-03-08T01:49:25;1.50;92.00
53748;DHT22;39655;53.210;5.768;2024-03-08T01:51:51;1.50;92.00
53748;DHT22;39655;53.210;5.768;2024-03-08T01:54:20;1.60;92.00
53748;DHT22;39655;53.210;5.768;2024-03-08T01:56:46;1.60;92.10
53748;DHT22;39655;53.210;5.768;2024-03-08T01:59:15;1.60;92.00
53748;DHT22;39655;53.210;5.768;2024-03-08T02:01:41;1.50;92.00
53748;DHT22;39655;53.210;5.768;2024-03-08T02:04:07;1.50;92.00
53748;DHT22;39655;53.210;5.768;2024-03-08T02:06:33;1.40;92.10
53748;DHT22;39655;53.210;5.768;2024-03-08T02:08:59;1.50;92.20
53748;DHT22;39655;53.210;5.768;2024-03-08T02:11:25;1.50;92.20
53748;DHT22;39655;53.210;5.768;2024-03-08T02:13:50;1.50;92.20
53748;DHT22;39655;53.210;5.768;2024-03-08T02:16:20;1.50;92.20
53748;DHT22;39655;53.210;5.768;2024-03-08T02:18:45;1.50;92.20
53748;DHT22;39655;53.210;5.768;2024-03-08T02:21:11;1.50;92.20
53748;DHT22;39655;53.210;5.768;2024-03-08T02:23:40;1.40;92.20
53748;DHT22;39655;53.210;5.768;2024-03-08T02:26:06;1.40;92.10
53748;DHT22;39655;53.210;5.768;2024-03-08T02:28:32;1.40;92.10
53748;DHT22;39655;53.210;5.768;2024-03-08T02:31:01;1.40;92.30
53748;DHT22;39655;53.210;5.768;2024-03-08T02:33:27;1.40;92.30
53748;DHT22;39655;53.210;5.768;2024-03-08T02:35:54;1.30;92.30
53748;DHT22;39655;53.210;5.768;2024-03-08T02:38:21;1.30;92.30
53748;DHT22;39655;53.210;5.768;2024-03-08T02:40:48;1.20;92.30
53748;DHT22;39655;53.210;5.768;2024-03-08T02:43:20;1.30;92.30
53748;DHT22;39655;53.210;5.768;2024-03-08T02:45:45;1.30;92.40
53748;DHT22;39655;53.210;5.768;2024-03-08T02:48:11;1.30;92.50
53748;DHT22;39655;53.210;5.768;2024-03-08T02:50:40;1.20;92.40
53748;DHT22;39655;53.210;5.768;2024-03-08T02:53:07;1.30;92.50
53748;DHT22;39655;53.210;5.768;2024-03-08T02:55:33;1.30;92.40
53748;DHT22;39655;53.210;5.768;2024-03-08T02:58:03;1.20;92.40
53748;DHT22;39655;53.210;5.768;2024-03-08T03:00:29;1.20;92.50
53748;DHT22;39655;53.210;5.768;2024-03-08T03:02:56;1.20;92.50
53748;DHT22;39655;53.210;5.768;2024-03-08T03:05:23;1.20;92.50
53748;DHT22;39655;53.210;5.768;2024-03-08T03:07:49;1.20;92.50
53748;DHT22;39655;53.210;5.768;2024-03-08T03:10:18;1.20;92.50
53748;DHT22;39655;53.210;5.768;2024-03-08T03:12:44;1.10;92.50
53748;DHT22;39655;53.210;5.768;2024-03-08T03:15:11;1.20;92.50
53748;DHT22;39655;53.210;5.768;2024-03-08T03:17:37;1.20;92.50
53748;DHT22;39655;53.210;5.768;2024-03-08T03:20:04;1.20;92.50
53748;DHT22;39655;53.210;5.768;2024-03-08T03:22:34;1.10;92.50
53748;DHT22;39655;53.210;5.768;2024-03-08T03:25:00;1.20;92.60
53748;DHT22;39655;53.210;5.768;2024-03-08T03:27:25;1.20;92.60
53748;DHT22;39655;53.210;5.768;2024-03-08T03:29:51;1.10;92.50
53748;DHT22;39655;53.210;5.768;2024-03-08T03:32:17;1.10;92.50
53748;DHT22;39655;53.210;5.768;2024-03-08T03:34:45;1.10;92.50
53748;DHT22;39655;53.210;5.768;2024-03-08T03:37:11;1.10;92.50
53748;DHT22;39655;53.210;5.768;2024-03-08T03:39:40;1.10;92.50
53748;DHT22;39655;53.210;5.768;2024-03-08T03:42:17;1.10;92.50
53748;DHT22;39655;53.210;5.768;2024-03-08T03:44:46;1.00;92.50
53748;DHT22;39655;53.210;5.768;2024-03-08T03:47:12;1.00;92.50
53748;DHT22;39655;53.210;5.768;2024-03-08T03:49:38;1.00;92.40
53748;DHT22;39655;53.210;5.768;2024-03-08T03:52:04;1.00;92.40
53748;DHT22;39655;53.210;5.768;2024-03-08T03:54:30;1.00;92.50
53748;DHT22;39655;53.210;5.768;2024-03-08T03:56:56;1.00;92.40
53748;DHT22;39655;53.210;5.768;2024-03-08T03:59:22;1.00;92.40
53748;DHT22;39655;53.210;5.768;2024-03-08T04:01:47;1.00;92.50
53748;DHT22;39655;53.210;5.768;2024-03-08T04:04:15;0.90;92.50
53748;DHT22;39655;53.210;5.768;2024-03-08T04:06:40;0.90;92.40
53748;DHT22;39655;53.210;5.768;2024-03-08T04:09:09;0.90;92.40
53748;DHT22;39655;53.210;5.768;2024-03-08T04:11:35;1.00;92.40
53748;DHT22;39655;53.210;5.768;2024-03-08T04:14:00;0.90;92.40
53748;DHT22;39655;53.210;5.768;2024-03-08T04:16:26;0.90;92.30
53748;DHT22;39655;53.210;5.768;2024-03-08T04:18:52;1.00;92.30
53748;DHT22;39655;53.210;5.768;2024-03-08T04:21:17;0.90;92.20
53748;DHT22;39655;53.210;5.768;2024-03-08T04:23:44;0.90;92.20
53748;DHT22;39655;53.210;5.768;2024-03-08T04:26:10;0.90;92.30
53748;DHT22;39655;53.210;5.768;2024-03-08T04:28:36;0.90;92.10
53748;DHT22;39655;53.210;5.768;2024-03-08T04:31:05;0.90;92.10
53748;DHT22;39655;53.210;5.768;2024-03-08T04:33:32;0.90;92.10
53748;DHT22;39655;53.210;5.768;2024-03-08T04:35:57;0.90;92.00
53748;DHT22;39655;53.210;5.768;2024-03-08T04:38:23;0.90;92.00
53748;DHT22;39655;53.210;5.768;2024-03-08T04:40:50;0.90;91.90
53748;DHT22;39655;53.210;5.768;2024-03-08T04:43:15;0.80;91.80
53748;DHT22;39655;53.210;5.768;2024-03-08T04:45:44;0.80;91.90
53748;DHT22;39655;53.210;5.768;2024-03-08T04:48:09;0.90;91.90
53748;DHT22;39655;53.210;5.768;2024-03-08T04:50:35;0.90;91.80
53748;DHT22;39655;53.210;5.768;2024-03-08T04:53:00;0.90;91.80
53748;DHT22;39655;53.210;5.768;2024-03-08T04:55:26;0.90;91.70
53748;DHT22;39655;53.210;5.768;2024-03-08T04:57:51;0.90;91.70
53748;DHT22;39655;53.210;5.768;2024-03-08T05:00:21;0.90;91.50
53748;DHT22;39655;53.210;5.768;2024-03-08T05:02:46;0.90;91.50
53748;DHT22;39655;53.210;5.768;2024-03-08T05:05:12;0.90;91.40
53748;DHT22;39655;53.210;5.768;2024-03-08T05:07:38;0.90;91.40
53748;DHT22;39655;53.210;5.768;2024-03-08T05:10:04;0.90;91.40
53748;DHT22;39655;53.210;5.768;2024-03-08T05:12:30;0.90;91.30
53748;DHT22;39655;53.210;5.768;2024-03-08T05:14:56;0.90;91.30
53748;DHT22;39655;53.210;5.768;2024-03-08T05:17:22;0.90;91.20
53748;DHT22;39655;53.210;5.768;2024-03-08T05:19:49;0.80;91.10
53748;DHT22;39655;53.210;5.768;2024-03-08T05:22:15;0.80;91.20
53748;DHT22;39655;53.210;5.768;2024-03-08T05:24:40;0.70;91.20
53748;DHT22;39655;53.210;5.768;2024-03-08T05:27:06;0.70;91.30
53748;DHT22;39655;53.210;5.768;2024-03-08T05:29:31;0.80;91.20
53748;DHT22;39655;53.210;5.768;2024-03-08T05:31:57;0.70;91.10
53748;DHT22;39655;53.210;5.768;2024-03-08T05:34:23;0.70;91.10
53748;DHT22;39655;53.210;5.768;2024-03-08T05:36:49;0.70;91.10
53748;DHT22;39655;53.210;5.768;2024-03-08T05:39:16;0.70;91.10
53748;DHT22;39655;53.210;5.768;2024-03-08T05:41:42;0.60;91.10
53748;DHT22;39655;53.210;5.768;2024-03-08T05:44:08;0.70;91.20
53748;DHT22;39655;53.210;5.768;2024-03-08T05:46:34;0.60;91.10
53748;DHT22;39655;53.210;5.768;2024-03-08T05:49:01;0.60;91.00
53748;DHT22;39655;53.210;5.768;2024-03-08T05:51:37;0.60;91.00
53748;DHT22;39655;53.210;5.768;2024-03-08T05:54:03;0.50;91.10
53748;DHT22;39655;53.210;5.768;2024-03-08T05:56:31;0.50;91.10
53748;DHT22;39655;53.210;5.768;2024-03-08T05:58:56;0.50;91.20
53748;DHT22;39655;53.210;5.768;2024-03-08T06:01:24;0.40;91.20
53748;DHT22;39655;53.210;5.768;2024-03-08T06:03:49;0.40;91.20
53748;DHT22;39655;53.210;5.768;2024-03-08T06:06:15;0.50;91.10
53748;DHT22;39655;53.210;5.768;2024-03-08T06:08:41;0.50;91.10
53748;DHT22;39655;53.210;5.768;2024-03-08T06:11:09;0.40;91.10
53748;DHT22;39655;53.210;5.768;2024-03-08T06:13:34;0.40;91.20
53748;DHT22;39655;53.210;5.768;2024-03-08T06:16:00;0.40;91.20
53748;DHT22;39655;53.210;5.768;2024-03-08T06:18:32;0.40;91.20
53748;DHT22;39655;53.210;5.768;2024-03-08T06:20:58;0.40;91.20
53748;DHT22;39655;53.210;5.768;2024-03-08T06:23:23;0.30;91.30
53748;DHT22;39655;53.210;5.768;2024-03-08T06:25:49;0.30;91.30
53748;DHT22;39655;53.210;5.768;2024-03-08T06:28:14;0.40;91.30
53748;DHT22;39655;53.210;5.768;2024-03-08T06:30:40;0.30;91.30
53748;DHT22;39655;53.210;5.768;2024-03-08T06:33:06;0.40;91.30
53748;DHT22;39655;53.210;5.768;2024-03-08T06:35:32;0.40;91.30
53748;DHT22;39655;53.210;5.768;2024-03-08T06:37:58;0.40;91.30
53748;DHT22;39655;53.210;5.768;2024-03-08T06:40:23;0.40;91.30
53748;DHT22;39655;53.210;5.768;2024-03-08T06:42:49;0.40;91.40
53748;DHT22;39655;53.210;5.768;2024-03-08T06:45:17;0.50;91.30
53748;DHT22;39655;53.210;5.768;2024-03-08T06:47:46;0.50;91.40
53748;DHT22;39655;53.210;5.768;2024-03-08T06:50:12;0.50;91.20
53748;DHT22;39655;53.210;5.768;2024-03-08T06:52:37;0.50;91.30
53748;DHT22;39655;53.210;5.768;2024-03-08T06:55:04;0.50;91.20
53748;DHT22;39655;53.210;5.768;2024-03-08T06:57:33;0.60;91.20
53748;DHT22;39655;53.210;5.768;2024-03-08T06:59:59;0.60;91.20
53748;DHT22;39655;53.210;5.768;2024-03-08T07:02:24;0.70;91.10
53748;DHT22;39655;53.210;5.768;2024-03-08T07:04:51;0.70;91.10
53748;DHT22;39655;53.210;5.768;2024-03-08T07:07:19;0.70;91.00
53748;DHT22;39655;53.210;5.768;2024-03-08T07:09:47;0.80;91.00
53748;DHT22;39655;53.210;5.768;2024-03-08T07:12:14;0.80;90.90
53748;DHT22;39655;53.210;5.768;2024-03-08T07:14:40;0.80;90.80
53748;DHT22;39655;53.210;5.768;2024-03-08T07:17:06;0.80;90.70
53748;DHT22;39655;53.210;5.768;2024-03-08T07:19:34;0.90;90.80
53748;DHT22;39655;53.210;5.768;2024-03-08T07:22:00;0.90;90.60
53748;DHT22;39655;53.210;5.768;2024-03-08T07:24:25;1.00;90.60
53748;DHT22;39655;53.210;5.768;2024-03-08T07:27:17;1.00;90.50
53748;DHT22;39655;53.210;5.768;2024-03-08T07:29:43;1.10;90.40
53748;DHT22;39655;53.210;5.768;2024-03-08T07:32:08;1.10;90.30
53748;DHT22;39655;53.210;5.768;2024-03-08T07:34:47;1.20;90.30
53748;DHT22;39655;53.210;5.768;2024-03-08T07:37:13;1.30;90.10
53748;DHT22;39655;53.210;5.768;2024-03-08T07:39:39;1.30;89.90
53748;DHT22;39655;53.210;5.768;2024-03-08T07:42:05;1.30;89.80
53748;DHT22;39655;53.210;5.768;2024-03-08T07:44:30;1.40;89.60
53748;DHT22;39655;53.210;5.768;2024-03-08T07:46:59;1.50;89.40
53748;DHT22;39655;53.210;5.768;2024-03-08T07:49:24;1.60;89.20
53748;DHT22;39655;53.210;5.768;2024-03-08T07:51:50;1.70;89.00
53748;DHT22;39655;53.210;5.768;2024-03-08T07:54:17;1.70;88.60
53748;DHT22;39655;53.210;5.768;2024-03-08T07:56:43;1.80;88.30
53748;DHT22;39655;53.210;5.768;2024-03-08T07:59:08;1.90;88.20
53748;DHT22;39655;53.210;5.768;2024-03-08T08:01:34;2.00;87.90
53748;DHT22;39655;53.210;5.768;2024-03-08T08:03:59;2.00;87.60
53748;DHT22;39655;53.210;5.768;2024-03-08T08:06:26;2.10;87.40
53748;DHT22;39655;53.210;5.768;2024-03-08T08:08:52;2.10;87.20
53748;DHT22;39655;53.210;5.768;2024-03-08T08:11:17;2.20;86.60
53748;DHT22;39655;53.210;5.768;2024-03-08T08:13:43;2.20;86.50
53748;DHT22;39655;53.210;5.768;2024-03-08T08:16:09;2.30;86.70
53748;DHT22;39655;53.210;5.768;2024-03-08T08:18:35;2.40;86.50
53748;DHT22;39655;53.210;5.768;2024-03-08T08:21:02;2.40;86.50
53748;DHT22;39655;53.210;5.768;2024-03-08T08:23:27;2.50;86.30
53748;DHT22;39655;53.210;5.768;2024-03-08T08:25:53;2.50;86.30
53748;DHT22;39655;53.210;5.768;2024-03-08T08:28:18;2.60;86.00
53748;DHT22;39655;53.210;5.768;2024-03-08T08:30:44;2.70;85.80
53748;DHT22;39655;53.210;5.768;2024-03-08T08:33:10;2.80;85.40
53748;DHT22;39655;53.210;5.768;2024-03-08T08:35:36;2.90;85.40
53748;DHT22;39655;53.210;5.768;2024-03-08T08:38:03;2.90;85.30
53748;DHT22;39655;53.210;5.768;2024-03-08T08:40:34;2.90;85.00
53748;DHT22;39655;53.210;5.768;2024-03-08T08:43:01;3.00;85.00
53748;DHT22;39655;53.210;5.768;2024-03-08T08:45:30;3.10;84.50
53748;DHT22;39655;53.210;5.768;2024-03-08T08:47:55;3.20;84.10
53748;DHT22;39655;53.210;5.768;2024-03-08T08:50:21;3.30;84.00
53748;DHT22;39655;53.210;5.768;2024-03-08T08:52:50;3.30;84.10
53748;DHT22;39655;53.210;5.768;2024-03-08T08:55:15;3.40;83.90
53748;DHT22;39655;53.210;5.768;2024-03-08T08:57:46;3.50;83.70
53748;DHT22;39655;53.210;5.768;2024-03-08T09:00:12;3.50;83.50
53748;DHT22;39655;53.210;5.768;2024-03-08T09:02:40;3.60;83.00
53748;DHT22;39655;53.210;5.768;2024-03-08T09:05:06;3.70;82.90
53748;DHT22;39655;53.210;5.768;2024-03-08T09:07:33;3.80;82.80
53748;DHT22;39655;53.210;5.768;2024-03-08T09:09:59;3.90;82.50
53748;DHT22;39655;53.210;5.768;2024-03-08T09:12:25;3.90;82.50
53748;DHT22;39655;53.210;5.768;2024-03-08T09:14:51;4.00;82.20
53748;DHT22;39655;53.210;5.768;2024-03-08T09:17:16;4.10;81.80
53748;DHT22;39655;53.210;5.768;2024-03-08T09:19:47;4.20;81.30
53748;DHT22;39655;53.210;5.768;2024-03-08T09:22:13;4.20;80.90
53748;DHT22;39655;53.210;5.768;2024-03-08T09:24:39;4.30;80.70
53748;DHT22;39655;53.210;5.768;2024-03-08T09:27:04;4.40;80.20
53748;DHT22;39655;53.210;5.768;2024-03-08T09:29:30;4.50;80.50
53748;DHT22;39655;53.210;5.768;2024-03-08T09:31:56;4.60;79.90
53748;DHT22;39655;53.210;5.768;2024-03-08T09:34:21;4.60;79.10
53748;DHT22;39655;53.210;5.768;2024-03-08T09:36:47;4.70;79.10
53748;DHT22;39655;53.210;5.768;2024-03-08T09:39:12;4.80;79.00
53748;DHT22;39655;53.210;5.768;2024-03-08T09:41:45;4.90;78.70
53748;DHT22;39655;53.210;5.768;2024-03-08T09:44:13;4.90;77.40
53748;DHT22;39655;53.210;5.768;2024-03-08T09:46:39;5.00;76.80
53748;DHT22;39655;53.210;5.768;2024-03-08T09:49:06;5.10;77.20
53748;DHT22;39655;53.210;5.768;2024-03-08T09:51:33;5.10;77.80
53748;DHT22;39655;53.210;5.768;2024-03-08T09:53:58;5.30;76.60
53748;DHT22;39655;53.210;5.768;2024-03-08T09:56:24;5.30;75.90
53748;DHT22;39655;53.210;5.768;2024-03-08T09:58:50;5.40;76.40
53748;DHT22;39655;53.210;5.768;2024-03-08T10:01:34;5.60;76.20
53748;DHT22;39655;53.210;5.768;2024-03-08T10:04:01;5.70;75.60
53748;DHT22;39655;53.210;5.768;2024-03-08T10:06:27;5.80;74.60
53748;DHT22;39655;53.210;5.768;2024-03-08T10:08:52;5.80;74.30
53748;DHT22;39655;53.210;5.768;2024-03-08T10:11:18;5.90;74.10
53748;DHT22;39655;53.210;5.768;2024-03-08T10:13:44;5.90;73.70
53748;DHT22;39655;53.210;5.768;2024-03-08T10:16:12;6.00;74.10
53748;DHT22;39655;53.210;5.768;2024-03-08T10:18:37;6.10;73.30
53748;DHT22;39655;53.210;5.768;2024-03-08T10:21:03;6.20;72.90
53748;DHT22;39655;53.210;5.768;2024-03-08T10:23:29;6.20;71.60
53748;DHT22;39655;53.210;5.768;2024-03-08T10:26:15;6.20;70.70
53748;DHT22;39655;53.210;5.768;2024-03-08T10:28:41;6.20;71.70
53748;DHT22;39655;53.210;5.768;2024-03-08T10:31:07;6.30;71.80
53748;DHT22;39655;53.210;5.768;2024-03-08T10:33:32;6.40;72.50
53748;DHT22;39655;53.210;5.768;2024-03-08T10:35:59;6.50;72.20
53748;DHT22;39655;53.210;5.768;2024-03-08T10:38:24;6.50;71.00
53748;DHT22;39655;53.210;5.768;2024-03-08T10:40:50;6.60;71.60
53748;DHT22;39655;53.210;5.768;2024-03-08T10:43:24;6.60;70.60
53748;DHT22;39655;53.210;5.768;2024-03-08T10:45:53;6.70;71.50
53748;DHT22;39655;53.210;5.768;2024-03-08T10:48:26;6.70;71.00
53748;DHT22;39655;53.210;5.768;2024-03-08T10:51:02;6.80;71.30
53748;DHT22;39655;53.210;5.768;2024-03-08T10:53:28;6.80;70.60
53748;DHT22;39655;53.210;5.768;2024-03-08T10:55:56;6.90;70.60
53748;DHT22;39655;53.210;5.768;2024-03-08T10:58:22;6.90;70.70
53748;DHT22;39655;53.210;5.768;2024-03-08T11:00:48;6.90;70.10
53748;DHT22;39655;53.210;5.768;2024-03-08T11:05:59;7.10;71.00
53748;DHT22;39655;53.210;5.768;2024-03-08T11:08:26;7.20;71.30
53748;DHT22;39655;53.210;5.768;2024-03-08T11:10:52;7.30;70.00
53748;DHT22;39655;53.210;5.768;2024-03-08T11:18:55;7.40;69.90
53748;DHT22;39655;53.210;5.768;2024-03-08T11:21:25;7.50;69.70
53748;DHT22;39655;53.210;5.768;2024-03-08T11:24:01;7.50;69.90
53748;DHT22;39655;53.210;5.768;2024-03-08T11:26:27;7.70;70.50
53748;DHT22;39655;53.210;5.768;2024-03-08T11:29:31;7.80;70.20
53748;DHT22;39655;53.210;5.768;2024-03-08T11:31:41;7.90;69.90
53748;DHT22;39655;53.210;5.768;2024-03-08T11:34:15;8.00;69.60
53748;DHT22;39655;53.210;5.768;2024-03-08T11:36:41;8.00;68.50
53748;DHT22;39655;53.210;5.768;2024-03-08T11:39:07;8.10;68.70
53748;DHT22;39655;53.210;5.768;2024-03-08T11:41:39;8.20;68.50
53748;DHT22;39655;53.210;5.768;2024-03-08T11:44:06;8.50;68.80
53748;DHT22;39655;53.210;5.768;2024-03-08T11:46:33;8.90;67.60
53748;DHT22;39655;53.210;5.768;2024-03-08T11:48:59;9.30;67.00
53748;DHT22;39655;53.210;5.768;2024-03-08T11:51:26;9.60;65.30
53748;DHT22;39655;53.210;5.768;2024-03-08T11:53:51;10.10;65.10
53748;DHT22;39655;53.210;5.768;2024-03-08T11:56:17;10.60;63.10
53748;DHT22;39655;53.210;5.768;2024-03-08T11:58:52;11.00;61.60
53748;DHT22;39655;53.210;5.768;2024-03-08T12:01:18;11.30;60.00
53748;DHT22;39655;53.210;5.768;2024-03-08T12:03:44;11.50;59.00
53748;DHT22;39655;53.210;5.768;2024-03-08T12:06:09;11.80;57.90
53748;DHT22;39655;53.210;5.768;2024-03-08T12:08:35;12.00;56.80
53748;DHT22;39655;53.210;5.768;2024-03-08T12:11:03;12.10;57.10
53748;DHT22;39655;53.210;5.768;2024-03-08T12:13:32;12.30;56.30
53748;DHT22;39655;53.210;5.768;2024-03-08T12:15:59;12.60;56.90
53748;DHT22;39655;53.210;5.768;2024-03-08T12:18:25;13.00;55.30
53748;DHT22;39655;53.210;5.768;2024-03-08T12:20:51;13.00;52.80
53748;DHT22;39655;53.210;5.768;2024-03-08T12:23:17;12.90;53.20
53748;DHT22;39655;53.210;5.768;2024-03-08T12:25:43;13.10;53.50
53748;DHT22;39655;53.210;5.768;2024-03-08T12:28:09;13.30;52.20
53748;DHT22;39655;53.210;5.768;2024-03-08T12:33:13;13.60;53.40
53748;DHT22;39655;53.210;5.768;2024-03-08T12:35:39;13.70;52.00
53748;DHT22;39655;53.210;5.768;2024-03-08T12:38:04;13.80;50.50
53748;DHT22;39655;53.210;5.768;2024-03-08T12:40:32;13.70;51.00
53748;DHT22;39655;53.210;5.768;2024-03-08T12:43:00;13.90;51.80
53748;DHT22;39655;53.210;5.768;2024-03-08T12:45:26;13.90;50.30
53748;DHT22;39655;53.210;5.768;2024-03-08T12:47:52;14.00;51.00
53748;DHT22;39655;53.210;5.768;2024-03-08T12:50:21;14.20;50.80
53748;DHT22;39655;53.210;5.768;2024-03-08T12:52:47;14.50;51.30
53748;DHT22;39655;53.210;5.768;2024-03-08T12:55:14;14.70;50.10
53748;DHT22;39655;53.210;5.768;2024-03-08T12:57:41;14.80;47.80
53748;DHT22;39655;53.210;5.768;2024-03-08T13:00:07;14.70;49.30
53748;DHT22;39655;53.210;5.768;2024-03-08T13:02:38;14.90;48.30
53748;DHT22;39655;53.210;5.768;2024-03-08T13:05:04;15.10;48.40
53748;DHT22;39655;53.210;5.768;2024-03-08T13:07:31;15.20;47.50
53748;DHT22;39655;53.210;5.768;2024-03-08T13:09:57;15.10;47.60
53748;DHT22;39655;53.210;5.768;2024-03-08T13:12:25;15.20;48.90
53748;DHT22;39655;53.210;5.768;2024-03-08T13:14:50;15.20;46.60
53748;DHT22;39655;53.210;5.768;2024-03-08T13:17:21;15.10;47.00
53748;DHT22;39655;53.210;5.768;2024-03-08T13:19:47;14.90;47.50
53748;DHT22;39655;53.210;5.768;2024-03-08T13:22:13;14.90;47.40
53748;DHT22;39655;53.210;5.768;2024-03-08T13:24:42;15.00;46.20
53748;DHT22;39655;53.210;5.768;2024-03-08T13:27:07;15.00;47.30
53748;DHT22;39655;53.210;5.768;2024-03-08T13:29:45;15.00;47.20
53748;DHT22;39655;53.210;5.768;2024-03-08T13:32:11;15.10;46.40
53748;DHT22;39655;53.210;5.768;2024-03-08T13:34:40;14.90;46.60
53748;DHT22;39655;53.210;5.768;2024-03-08T13:37:05;15.00;46.80
53748;DHT22;39655;53.210;5.768;2024-03-08T13:39:31;15.20;46.30
53748;DHT22;39655;53.210;5.768;2024-03-08T13:42:12;15.20;46.60
53748;DHT22;39655;53.210;5.768;2024-03-08T13:44:39;15.30;47.00
53748;DHT22;39655;53.210;5.768;2024-03-08T13:47:04;15.40;46.30
53748;DHT22;39655;53.210;5.768;2024-03-08T13:49:30;15.50;45.70
53748;DHT22;39655;53.210;5.768;2024-03-08T13:51:56;15.50;45.50
53748;DHT22;39655;53.210;5.768;2024-03-08T13:54:24;15.50;46.20
53748;DHT22;39655;53.210;5.768;2024-03-08T13:56:49;15.90;46.00
53748;DHT22;39655;53.210;5.768;2024-03-08T13:59:15;16.30;44.00
53748;DHT22;39655;53.210;5.768;2024-03-08T14:01:41;16.20;43.90
53748;DHT22;39655;53.210;5.768;2024-03-08T14:04:08;16.10;43.70
53748;DHT22;39655;53.210;5.768;2024-03-08T14:06:35;15.90;44.80
53748;DHT22;39655;53.210;5.768;2024-03-08T14:09:00;16.10;44.30
53748;DHT22;39655;53.210;5.768;2024-03-08T14:11:27;16.20;44.00
53748;DHT22;39655;53.210;5.768;2024-03-08T14:13:53;16.10;43.80
53748;DHT22;39655;53.210;5.768;2024-03-08T14:16:19;15.90;44.40
53748;DHT22;39655;53.210;5.768;2024-03-08T14:18:44;16.10;43.80
53748;DHT22;39655;53.210;5.768;2024-03-08T14:21:10;16.10;44.60
53748;DHT22;39655;53.210;5.768;2024-03-08T14:23:35;16.30;44.90
53748;DHT22;39655;53.210;5.768;2024-03-08T14:26:02;16.80;45.20
53748;DHT22;39655;53.210;5.768;2024-03-08T14:28:27;17.10;43.40
53748;DHT22;39655;53.210;5.768;2024-03-08T14:30:53;17.20;43.20
53748;DHT22;39655;53.210;5.768;2024-03-08T14:33:21;17.40;42.10
53748;DHT22;39655;53.210;5.768;2024-03-08T14:35:47;17.40;42.30
53748;DHT22;39655;53.210;5.768;2024-03-08T14:38:14;17.50;42.40
53748;DHT22;39655;53.210;5.768;2024-03-08T14:40:42;17.40;41.50
53748;DHT22;39655;53.210;5.768;2024-03-08T14:43:12;17.30;41.80
53748;DHT22;39655;53.210;5.768;2024-03-08T14:45:38;17.40;41.20
53748;DHT22;39655;53.210;5.768;2024-03-08T14:48:04;17.20;41.80
53748;DHT22;39655;53.210;5.768;2024-03-08T14:50:30;17.20;41.40
53748;DHT22;39655;53.210;5.768;2024-03-08T14:52:58;17.10;40.40
53748;DHT22;39655;53.210;5.768;2024-03-08T14:55:25;17.10;40.30
53748;DHT22;39655;53.210;5.768;2024-03-08T14:57:51;17.00;40.90
53748;DHT22;39655;53.210;5.768;2024-03-08T15:00:20;16.80;40.90
53748;DHT22;39655;53.210;5.768;2024-03-08T15:02:53;16.90;42.80
53748;DHT22;39655;53.210;5.768;2024-03-08T15:05:22;17.10;42.10
53748;DHT22;39655;53.210;5.768;2024-03-08T15:07:52;17.10;40.70
53748;DHT22;39655;53.210;5.768;2024-03-08T15:10:17;17.00;39.90
53748;DHT22;39655;53.210;5.768;2024-03-08T15:12:45;16.60;42.10
53748;DHT22;39655;53.210;5.768;2024-03-08T15:15:14;16.50;42.50
53748;DHT22;39655;53.210;5.768;2024-03-08T15:17:46;16.60;42.90
53748;DHT22;39655;53.210;5.768;2024-03-08T15:20:12;16.90;41.70
53748;DHT22;39655;53.210;5.768;2024-03-08T15:22:54;16.90;42.40
53748;DHT22;39655;53.210;5.768;2024-03-08T15:25:23;17.00;42.90
53748;DHT22;39655;53.210;5.768;2024-03-08T15:27:52;17.20;41.80
53748;DHT22;39655;53.210;5.768;2024-03-08T15:30:18;17.10;41.10
53748;DHT22;39655;53.210;5.768;2024-03-08T15:32:50;17.20;42.00
53748;DHT22;39655;53.210;5.768;2024-03-08T15:35:16;17.40;41.50
53748;DHT22;39655;53.210;5.768;2024-03-08T15:37:42;17.40;41.30
53748;DHT22;39655;53.210;5.768;2024-03-08T15:40:14;17.10;40.90
53748;DHT22;39655;53.210;5.768;2024-03-08T15:43:02;16.80;41.30
53748;DHT22;39655;53.210;5.768;2024-03-08T15:45:28;16.60;41.60
53748;DHT22;39655;53.210;5.768;2024-03-08T15:47:57;16.80;41.80
53748;DHT22;39655;53.210;5.768;2024-03-08T15:50:23;16.60;42.00
53748;DHT22;39655;53.210;5.768;2024-03-08T15:52:49;16.40;41.80